sensor_id;sensor_type;location;lat;lon;timestamp;pressure;altitude;pressure_sealevel;temperature;humidity
36354;BME280;22383;51.114;13.666;2023-06-22T00:00:16;69435.84;;;20.35;100.00
36354;BME280;22383;51.114;13.666;2023-06-22T00:02:43;69433.22;;;20.28;100.00
36354;BME280;22383;51.114;13.666;2023-06-22T00:05:10;69419.09;;;20.17;100.00
36354;BME280;22383;51.114;13.666;2023-06-22T00:07:37;69415.50;;;20.12;100.00
36354;BME280;22383;51.114;13.666;2023-06-22T00:10:05;69410.00;;;20.09;100.00
36354;BME280;22383;51.114;13.666;2023-06-22T00:12:32;69408.84;;;20.08;100.00
36354;BME280;22383;51.114;13.666;2023-06-22T00:15:00;69413.06;;;20.07;100.00
36354;BME280;22383;51.114;13.666;2023-06-22T00:17:27;69408.28;;;20.08;100.00
36354;BME280;22383;51.114;13.666;2023-06-22T00:19:54;69409.41;;;20.09;100.00
36354;BME280;22383;51.114;13.666;2023-06-22T00:22:22;69409.00;;;20.11;100.00
36354;BME280;22383;51.114;13.666;2023-06-22T00:24:56;69404.44;;;20.07;100.00
36354;BME280;22383;51.114;13.666;2023-06-22T00:27:23;69404.66;;;20.02;100.00
36354;BME280;22383;51.114;13.666;2023-06-22T00:29:51;69401.97;;;20.02;100.00
36354;BME280;22383;51.114;13.666;2023-06-22T00:32:18;69404.28;;;20.04;100.00
36354;BME280;22383;51.114;13.666;2023-06-22T00:34:47;69401.97;;;20.02;100.00
36354;BME280;22383;51.114;13.666;2023-06-22T00:37:14;69404.09;;;20.01;100.00
36354;BME280;22383;51.114;13.666;2023-06-22T00:39:45;69401.81;;;19.99;100.00
36354;BME280;22383;51.114;13.666;2023-06-22T00:42:12;69396.28;;;19.97;100.00
36354;BME280;22383;51.114;13.666;2023-06-22T00:44:39;69391.53;;;19.90;100.00
36354;BME280;22383;51.114;13.666;2023-06-22T00:47:07;69390.41;;;19.89;100.00
36354;BME280;22383;51.114;13.666;2023-06-22T00:49:34;69387.16;;;19.89;100.00
36354;BME280;22383;51.114;13.666;2023-06-22T00:52:02;69401.25;;;19.99;100.00
36354;BME280;22383;51.114;13.666;2023-06-22T00:54:29;69370.97;;;19.96;100.00
36354;BME280;22383;51.114;13.666;2023-06-22T00:56:57;69385.09;;;19.82;100.00
36354;BME280;22383;51.114;13.666;2023-06-22T00:59:26;69367.16;;;19.71;100.00
36354;BME280;22383;51.114;13.666;2023-06-22T01:01:54;69365.25;;;19.67;100.00
36354;BME280;22383;51.114;13.666;2023-06-22T01:04:24;69364.69;;;19.66;100.00
36354;BME280;22383;51.114;13.666;2023-06-22T01:09:36;69366.00;;;19.70;100.00
36354;BME280;22383;51.114;13.666;2023-06-22T01:12:09;69354.59;;;19.59;100.00
36354;BME280;22383;51.114;13.666;2023-06-22T01:14:41;69351.16;;;19.56;100.00
36354;BME280;22383;51.114;13.666;2023-06-22T01:17:11;69354.44;;;19.57;100.00
36354;BME280;22383;51.114;13.666;2023-06-22T01:19:45;69343.91;;;19.52;100.00
36354;BME280;22383;51.114;13.666;2023-06-22T01:22:30;69332.75;;;19.37;100.00
36354;BME280;22383;51.114;13.666;2023-06-22T01:25:13;69322.06;;;19.30;100.00
36354;BME280;22383;51.114;13.666;2023-06-22T01:28:01;69324.00;;;19.27;100.00
36354;BME280;22383;51.114;13.666;2023-06-22T01:30:32;69320.19;;;19.26;100.00
36354;BME280;22383;51.114;13.666;2023-06-22T01:33:05;69323.03;;;19.29;100.00
36354;BME280;22383;51.114;13.666;2023-06-22T01:35:33;69315.38;;;19.26;100.00
36354;BME280;22383;51.114;13.666;2023-06-22T01:38:02;69322.06;;;19.30;100.00
36354;BME280;22383;51.114;13.666;2023-06-22T01:40:29;69317.91;;;19.24;100.00
36354;BME280;22383;51.114;13.666;2023-06-22T01:43:00;69315.44;;;19.19;100.00
36354;BME280;22383;51.114;13.666;2023-06-22T01:45:28;69311.78;;;19.21;100.00
36354;BME280;22383;51.114;13.666;2023-06-22T01:47:56;69308.75;;;19.16;100.00
36354;BME280;22383;51.114;13.666;2023-06-22T01:50:24;69303.63;;;19.11;100.00
36354;BME280;22383;51.114;13.666;2023-06-22T01:52:51;69291.41;;;19.05;100.00
36354;BME280;22383;51.114;13.666;2023-06-22T01:55:18;69286.28;;;19.00;100.00
36354;BME280;22383;51.114;13.666;2023-06-22T01:57:49;69296.38;;;19.07;100.00
36354;BME280;22383;51.114;13.666;2023-06-22T02:00:20;69297.53;;;19.08;100.00
36354;BME280;22383;51.114;13.666;2023-06-22T02:02:59;69295.81;;;19.06;100.00
36354;BME280;22383;51.114;13.666;2023-06-22T02:05:32;69284.97;;;18.97;100.00
36354;BME280;22383;51.114;13.666;2023-06-22T02:08:18;69276.81;;;18.87;100.00
36354;BME280;22383;51.114;13.666;2023-06-22T02:10:49;69264.25;;;18.76;100.00
36354;BME280;22383;51.114;13.666;2023-06-22T02:13:17;69256.25;;;18.68;100.00
36354;BME280;22383;51.114;13.666;2023-06-22T02:15:45;69253.00;;;18.68;100.00
36354;BME280;22383;51.114;13.666;2023-06-22T02:18:13;69252.63;;;18.70;100.00
36354;BME280;22383;51.114;13.666;2023-06-22T02:20:40;69241.78;;;18.60;100.00
36354;BME280;22383;51.114;13.666;2023-06-22T02:23:08;69235.34;;;18.52;100.00
36354;BME280;22383;51.114;13.666;2023-06-22T02:25:35;69233.06;;;18.50;100.00
36354;BME280;22383;51.114;13.666;2023-06-22T02:28:03;69236.88;;;18.51;100.00
36354;BME280;22383;51.114;13.666;2023-06-22T02:30:31;69233.81;;;18.53;100.00
36354;BME280;22383;51.114;13.666;2023-06-22T02:32:59;69236.31;;;18.50;100.00
36354;BME280;22383;51.114;13.666;2023-06-22T02:35:28;69239.31;;;18.56;100.00
36354;BME280;22383;51.114;13.666;2023-06-22T02:37:59;69244.69;;;18.56;100.00
36354;BME280;22383;51.114;13.666;2023-06-22T02:40:28;69233.97;;;18.56;100.00
36354;BME280;22383;51.114;13.666;2023-06-22T02:42:58;69246.75;;;18.62;100.00
36354;BME280;22383;51.114;13.666;2023-06-22T02:45:29;69241.19;;;18.60;100.00
36354;BME280;22383;51.114;13.666;2023-06-22T02:47:57;69250.97;;;18.61;100.00
36354;BME280;22383;51.114;13.666;2023-06-22T02:50:24;69245.84;;;18.57;100.00
36354;BME280;22383;51.114;13.666;2023-06-22T02:52:54;69238.00;;;18.52;100.00
36354;BME280;22383;51.114;13.666;2023-06-22T02:55:21;69223.94;;;18.42;100.00
36354;BME280;22383;51.114;13.666;2023-06-22T02:57:54;69225.81;;;18.46;100.00
36354;BME280;22383;51.114;13.666;2023-06-22T03:00:22;69235.16;;;18.49;100.00
36354;BME280;22383;51.114;13.666;2023-06-22T03:02:49;69225.09;;;18.43;100.00
36354;BME280;22383;51.114;13.666;2023-06-22T03:05:18;69220.50;;;18.39;100.00
36354;BME280;22383;51.114;13.666;2023-06-22T03:07:47;69215.38;;;18.34;100.00
36354;BME280;22383;51.114;13.666;2023-06-22T03:10:15;69211.00;;;18.32;100.00
36354;BME280;22383;51.114;13.666;2023-06-22T03:12:43;69212.38;;;18.29;100.00
36354;BME280;22383;51.114;13.666;2023-06-22T03:15:12;69215.19;;;18.31;100.00
36354;BME280;22383;51.114;13.666;2023-06-22T03:17:40;69211.22;;;18.28;100.00
36354;BME280;22383;51.114;13.666;2023-06-22T03:20:09;69205.09;;;18.25;100.00
36354;BME280;22383;51.114;13.666;2023-06-22T03:22:39;69195.59;;;18.19;100.00
36354;BME280;22383;51.114;13.666;2023-06-22T03:25:08;69212.19;;;18.26;100.00
36354;BME280;22383;51.114;13.666;2023-06-22T03:27:43;69217.47;;;18.33;100.00
36354;BME280;22383;51.114;13.666;2023-06-22T03:30:12;69220.34;;;18.36;100.00
36354;BME280;22383;51.114;13.666;2023-06-22T03:32:39;69217.09;;;18.36;100.00
36354;BME280;22383;51.114;13.666;2023-06-22T03:35:07;69225.88;;;18.39;100.00
36354;BME280;22383;51.114;13.666;2023-06-22T03:37:36;69228.31;;;18.43;100.00
36354;BME280;22383;51.114;13.666;2023-06-22T03:40:05;69227.16;;;18.42;100.00
36354;BME280;22383;51.114;13.666;2023-06-22T03:42:35;69228.47;;;18.46;100.00
36354;BME280;22383;51.114;13.666;2023-06-22T03:45:03;69234.59;;;18.49;100.00
36354;BME280;22383;51.114;13.666;2023-06-22T03:47:32;69233.06;;;18.50;100.00
36354;BME280;22383;51.114;13.666;2023-06-22T03:50:01;69232.09;;;18.51;100.00
36354;BME280;22383;51.114;13.666;2023-06-22T03:52:30;69235.34;;;18.52;100.00
36354;BME280;22383;51.114;13.666;2023-06-22T03:54:58;69232.09;;;18.51;100.00
36354;BME280;22383;51.114;13.666;2023-06-22T03:57:25;69227.53;;;18.47;100.00
36354;BME280;22383;51.114;13.666;2023-06-22T03:59:56;69233.22;;;18.52;100.00
36354;BME280;22383;51.114;13.666;2023-06-22T04:02:24;69236.31;;;18.50;100.00
36354;BME280;22383;51.114;13.666;2023-06-22T04:04:51;69221.25;;;18.42;100.00
36354;BME280;22383;51.114;13.666;2023-06-22T04:07:18;69227.16;;;18.42;100.00
36354;BME280;22383;51.114;13.666;2023-06-22T04:09:46;69219.94;;;18.38;100.00
36354;BME280;22383;51.114;13.666;2023-06-22T04:12:13;69223.94;;;18.42;100.00
36354;BME280;22383;51.114;13.666;2023-06-22T04:14:40;69225.09;;;18.43;100.00
36354;BME280;22383;51.114;13.666;2023-06-22T04:17:07;69230.59;;;18.45;100.00
36354;BME280;22383;51.114;13.666;2023-06-22T04:19:40;69228.66;;;18.48;100.00
36354;BME280;22383;51.114;13.666;2023-06-22T04:22:10;69229.78;;;18.49;100.00
36354;BME280;22383;51.114;13.666;2023-06-22T04:24:37;69237.06;;;18.54;100.00
36354;BME280;22383;51.114;13.666;2023-06-22T04:27:07;69247.88;;;18.63;100.00
36354;BME280;22383;51.114;13.666;2023-06-22T04:29:37;69240.47;;;18.57;100.00
36354;BME280;22383;51.114;13.666;2023-06-22T04:32:08;69241.59;;;18.58;100.00
36354;BME280;22383;51.114;13.666;2023-06-22T04:34:35;69241.03;;;18.57;100.00
36354;BME280;22383;51.114;13.666;2023-06-22T04:37:03;69243.31;;;18.59;100.00
36354;BME280;22383;51.114;13.666;2023-06-22T04:39:33;69254.72;;;18.69;100.00
36354;BME280;22383;51.114;13.666;2023-06-22T04:42:00;69277.94;;;18.88;100.00
36354;BME280;22383;51.114;13.666;2023-06-22T04:44:30;69293.53;;;19.04;100.00
36354;BME280;22383;51.114;13.666;2023-06-22T04:46:59;69319.22;;;19.27;100.00
36354;BME280;22383;51.114;13.666;2023-06-22T04:49:36;69358.56;;;19.63;100.00
36354;BME280;22383;51.114;13.666;2023-06-22T04:52:09;69398.16;;;20.01;100.00
36354;BME280;22383;51.114;13.666;2023-06-22T04:54:38;69410.00;;;20.09;100.00
36354;BME280;22383;51.114;13.666;2023-06-22T04:57:07;69413.56;;;20.15;100.00
36354;BME280;22383;51.114;13.666;2023-06-22T04:59:38;69412.84;;;20.12;100.00
36354;BME280;22383;51.114;13.666;2023-06-22T05:02:09;69408.28;;;20.08;100.00
36354;BME280;22383;51.114;13.666;2023-06-22T05:04:36;69419.69;;;20.18;100.00
36354;BME280;22383;51.114;13.666;2023-06-22T05:07:06;69428.81;;;20.26;100.00
36354;BME280;22383;51.114;13.666;2023-06-22T05:09:34;69456.63;;;20.49;100.00
36354;BME280;22383;51.114;13.666;2023-06-22T05:12:02;69465.78;;;20.57;100.00
36354;BME280;22383;51.114;13.666;2023-06-22T05:14:29;69473.38;;;20.66;100.00
36354;BME280;22383;51.114;13.666;2023-06-22T05:16:57;69488.81;;;20.80;100.00
36354;BME280;22383;51.114;13.666;2023-06-22T05:19:30;69508.78;;;20.98;100.00
36354;BME280;22383;51.114;13.666;2023-06-22T05:22:01;69546.91;;;21.30;100.00
36354;BME280;22383;51.114;13.666;2023-06-22T05:24:29;69558.50;;;21.43;100.00
36354;BME280;22383;51.114;13.666;2023-06-22T05:26:56;69588.97;;;21.73;100.00
36354;BME280;22383;51.114;13.666;2023-06-22T05:29:24;69595.81;;;21.79;100.00
36354;BME280;22383;51.114;13.666;2023-06-22T05:31:51;69622.94;;;21.98;100.00
36354;BME280;22383;51.114;13.666;2023-06-22T05:34:18;69608.56;;;22.09;100.00
36354;BME280;22383;51.114;13.666;2023-06-22T05:36:46;69615.25;;;21.96;100.00
36354;BME280;22383;51.114;13.666;2023-06-22T05:39:19;69612.22;;;21.91;100.00
36354;BME280;22383;51.114;13.666;2023-06-22T05:41:46;69602.69;;;21.85;100.00
36354;BME280;22383;51.114;13.666;2023-06-22T05:44:14;69579.66;;;21.62;100.00
36354;BME280;22383;51.114;13.666;2023-06-22T05:46:44;69587.81;;;21.71;100.00
36354;BME280;22383;51.114;13.666;2023-06-22T05:49:20;69613.78;;;21.90;100.00
36354;BME280;22383;51.114;13.666;2023-06-22T05:51:59;69655.13;;;22.30;100.00
36354;BME280;22383;51.114;13.666;2023-06-22T05:54:27;69670.97;;;22.41;100.00
36354;BME280;22383;51.114;13.666;2023-06-22T05:56:55;69707.75;;;22.77;100.00
36354;BME280;22383;51.114;13.666;2023-06-22T05:59:25;69737.66;;;23.06;100.00
36354;BME280;22383;51.114;13.666;2023-06-22T06:01:53;69762.53;;;23.24;100.00
36354;BME280;22383;51.114;13.666;2023-06-22T06:04:20;69763.25;;;23.27;100.00
36354;BME280;22383;51.114;13.666;2023-06-22T06:06:47;69712.63;;;23.03;100.00
36354;BME280;22383;51.114;13.666;2023-06-22T06:09:15;69746.09;;;23.11;100.00
36354;BME280;22383;51.114;13.666;2023-06-22T06:11:42;69761.81;;;23.47;100.00
36354;BME280;22383;51.114;13.666;2023-06-22T06:14:11;69817.88;;;23.71;100.00
36354;BME280;22383;51.114;13.666;2023-06-22T06:16:41;69830.97;;;23.90;100.00
36354;BME280;22383;51.114;13.666;2023-06-22T06:19:11;69847.97;;;24.03;100.00
36354;BME280;22383;51.114;13.666;2023-06-22T06:21:39;69855.97;;;24.10;100.00
36354;BME280;22383;51.114;13.666;2023-06-22T06:24:12;69831.94;;;23.88;100.00
36354;BME280;22383;51.114;13.666;2023-06-22T06:26:42;69753.25;;;23.39;100.00
36354;BME280;22383;51.114;13.666;2023-06-22T06:29:09;69704.47;;;22.76;100.00
36354;BME280;22383;51.114;13.666;2023-06-22T06:31:39;69695.59;;;22.63;100.00
36354;BME280;22383;51.114;13.666;2023-06-22T06:34:07;69679.16;;;22.51;100.00
36354;BME280;22383;51.114;13.666;2023-06-22T06:36:37;69667.13;;;22.40;100.00
36354;BME280;22383;51.114;13.666;2023-06-22T06:39:07;69658.00;;;22.32;100.00
36354;BME280;22383;51.114;13.666;2023-06-22T06:41:39;69667.97;;;22.36;100.00
36354;BME280;22383;51.114;13.666;2023-06-22T06:44:14;69661.03;;;22.37;100.00
36354;BME280;22383;51.114;13.666;2023-06-22T06:46:44;69671.72;;;22.44;100.00
36354;BME280;22383;51.114;13.666;2023-06-22T06:49:12;69670.00;;;22.43;100.00
36354;BME280;22383;51.114;13.666;2023-06-22T06:51:45;69687.16;;;22.58;100.00
36354;BME280;22383;51.114;13.666;2023-06-22T06:54:12;69697.44;;;22.68;100.00
36354;BME280;22383;51.114;13.666;2023-06-22T06:56:42;69724.91;;;22.92;100.00
36354;BME280;22383;51.114;13.666;2023-06-22T06:59:15;69773.56;;;23.36;100.00
36354;BME280;22383;51.114;13.666;2023-06-22T07:01:44;69774.41;;;23.58;100.00
36354;BME280;22383;51.114;13.666;2023-06-22T07:04:12;69846.97;;;24.04;100.00
36354;BME280;22383;51.114;13.666;2023-06-22T07:06:40;69901.78;;;24.51;100.00
36354;BME280;22383;51.114;13.666;2023-06-22T07:09:07;69937.47;;;24.85;100.00
36354;BME280;22383;51.114;13.666;2023-06-22T07:11:35;69970.38;;;25.10;100.00
36354;BME280;22383;51.114;13.666;2023-06-22T07:14:03;69967.81;;;25.13;100.00
36354;BME280;22383;51.114;13.666;2023-06-22T07:16:31;69972.25;;;25.14;100.00
36354;BME280;22383;51.114;13.666;2023-06-22T07:18:59;69999.78;;;25.39;100.00
36354;BME280;22383;51.114;13.666;2023-06-22T07:21:27;69987.16;;;25.27;100.00
36354;BME280;22383;51.114;13.666;2023-06-22T07:23:54;69987.31;;;25.30;100.00
36354;BME280;22383;51.114;13.666;2023-06-22T07:26:22;70015.38;;;25.55;100.00
36354;BME280;22383;51.114;13.666;2023-06-22T07:28:49;70040.03;;;25.77;100.00
36354;BME280;22383;51.114;13.666;2023-06-22T07:31:17;70069.13;;;26.01;100.00
36354;BME280;22383;51.114;13.666;2023-06-22T07:33:45;70082.44;;;26.15;100.00
36354;BME280;22383;51.114;13.666;2023-06-22T07:36:12;70072.88;;;26.09;100.00
36354;BME280;22383;51.114;13.666;2023-06-22T07:38:39;70009.66;;;25.50;100.00
36354;BME280;22383;51.114;13.666;2023-06-22T07:41:07;70015.81;;;25.53;100.00
36354;BME280;22383;51.114;13.666;2023-06-22T07:43:34;70038.72;;;25.74;100.00
36354;BME280;22383;51.114;13.666;2023-06-22T07:46:03;69985.69;;;25.48;100.00
36354;BME280;22383;51.114;13.666;2023-06-22T07:48:31;69994.75;;;25.37;100.00
36354;BME280;22383;51.114;13.666;2023-06-22T07:50:58;70020.94;;;25.58;100.00
36354;BME280;22383;51.114;13.666;2023-06-22T07:53:25;70070.28;;;26.02;100.00
36354;BME280;22383;51.114;13.666;2023-06-22T07:55:53;70073.94;;;26.27;100.00
36354;BME280;22383;51.114;13.666;2023-06-22T07:58:20;70115.69;;;26.45;100.00
36354;BME280;22383;51.114;13.666;2023-06-22T08:00:47;70112.66;;;26.40;100.00
36354;BME280;22383;51.114;13.666;2023-06-22T08:03:16;70112.25;;;26.42;100.00
36354;BME280;22383;51.114;13.666;2023-06-22T08:05:44;70135.78;;;26.63;100.00
36354;BME280;22383;51.114;13.666;2023-06-22T08:08:11;70142.16;;;26.88;100.00
36354;BME280;22383;51.114;13.666;2023-06-22T08:10:38;70178.06;;;26.98;100.00
36354;BME280;22383;51.114;13.666;2023-06-22T08:13:06;70140.44;;;26.87;100.00
36354;BME280;22383;51.114;13.666;2023-06-22T08:15:33;70134.44;;;26.59;100.00
36354;BME280;22383;51.114;13.666;2023-06-22T08:18:00;70154.56;;;26.77;100.00
36354;BME280;22383;51.114;13.666;2023-06-22T08:20:28;70147.88;;;26.93;100.00
36354;BME280;22383;51.114;13.666;2023-06-22T08:22:55;70174.19;;;26.97;100.00
36354;BME280;22383;51.114;13.666;2023-06-22T08:25:24;70159.13;;;26.82;100.00
36354;BME280;22383;51.114;13.666;2023-06-22T08:27:51;70142.72;;;26.89;100.00
36354;BME280;22383;51.114;13.666;2023-06-22T08:30:19;70187.81;;;27.07;100.00
36354;BME280;22383;51.114;13.666;2023-06-22T08:32:46;70163.38;;;27.07;100.00
36354;BME280;22383;51.114;13.666;2023-06-22T08:35:14;70199.28;;;27.17;100.00
36354;BME280;22383;51.114;13.666;2023-06-22T09:29:35;70260.25;;;27.75;100.00
36354;BME280;22383;51.114;13.666;2023-06-22T09:32:04;70217.66;;;27.34;100.00
36354;BME280;22383;51.114;13.666;2023-06-22T09:34:32;70240.75;;;27.57;100.00
36354;BME280;22383;51.114;13.666;2023-06-22T09:36:59;70290.72;;;28.21;100.00
36354;BME280;22383;51.114;13.666;2023-06-22T09:39:28;70359.00;;;28.63;100.00
36354;BME280;22383;51.114;13.666;2023-06-22T09:41:55;70388.25;;;28.89;100.00
36354;BME280;22383;51.114;13.666;2023-06-22T09:44:22;70396.31;;;28.96;100.00
36354;BME280;22383;51.114;13.666;2023-06-22T09:46:50;70421.03;;;29.18;100.00
36354;BME280;22383;51.114;13.666;2023-06-22T09:49:17;70394.63;;;29.14;94.60
36354;BME280;22383;51.114;13.666;2023-06-22T09:51:54;70422.75;;;29.39;97.33
36354;BME280;22383;51.114;13.666;2023-06-22T09:54:21;70390.59;;;29.11;100.00
36354;BME280;22383;51.114;13.666;2023-06-22T09:56:48;70361.31;;;28.65;100.00
36354;BME280;22383;51.114;13.666;2023-06-22T09:59:18;70333.56;;;28.38;100.00
36354;BME280;22383;51.114;13.666;2023-06-22T10:01:45;70346.22;;;28.49;100.00
36354;BME280;22383;51.114;13.666;2023-06-22T10:04:13;70344.06;;;28.50;100.00
36354;BME280;22383;51.114;13.666;2023-06-22T10:06:41;70379.09;;;28.81;100.00
36354;BME280;22383;51.114;13.666;2023-06-22T10:09:08;70336.63;;;28.62;100.00
36354;BME280;22383;51.114;13.666;2023-06-22T10:11:36;70346.91;;;28.52;100.00
36354;BME280;22383;51.114;13.666;2023-06-22T10:14:04;70345.19;;;28.51;100.00
36354;BME280;22383;51.114;13.666;2023-06-22T10:16:32;70318.84;;;28.46;100.00
36354;BME280;22383;51.114;13.666;2023-06-22T10:19:02;70280.34;;;27.92;100.00
36354;BME280;22383;51.114;13.666;2023-06-22T10:21:29;70234.44;;;27.51;100.00
36354;BME280;22383;51.114;13.666;2023-06-22T10:23:57;70226.84;;;27.42;100.00
36354;BME280;22383;51.114;13.666;2023-06-22T10:26:25;70234.44;;;27.51;100.00
36354;BME280;22383;51.114;13.666;2023-06-22T10:28:56;70210.41;;;27.49;100.00
36354;BME280;22383;51.114;13.666;2023-06-22T10:31:42;70226.84;;;27.42;100.00
36354;BME280;22383;51.114;13.666;2023-06-22T10:34:10;70236.59;;;27.51;100.00
36354;BME280;22383;51.114;13.666;2023-06-22T10:36:39;70229.28;;;27.47;100.00
36354;BME280;22383;51.114;13.666;2023-06-22T10:39:06;70226.25;;;27.42;100.00
36354;BME280;22383;51.114;13.666;2023-06-22T10:41:37;70228.56;;;27.44;100.00
36354;BME280;22383;51.114;13.666;2023-06-22T10:44:04;70280.34;;;27.92;100.00
36354;BME280;22383;51.114;13.666;2023-06-22T10:46:32;70312.34;;;28.19;100.00
36354;BME280;22383;51.114;13.666;2023-06-22T10:49:00;70336.03;;;28.42;100.00
36354;BME280;22383;51.114;13.666;2023-06-22T10:51:27;70354.84;;;28.57;100.00
36354;BME280;22383;51.114;13.666;2023-06-22T10:53:55;70329.19;;;28.56;100.00
36354;BME280;22383;51.114;13.666;2023-06-22T10:56:23;70317.66;;;28.26;100.00
36354;BME280;22383;51.114;13.666;2023-06-22T10:58:51;70285.94;;;27.95;100.00
36354;BME280;22383;51.114;13.666;2023-06-22T11:01:19;70255.50;;;27.68;100.00
36354;BME280;22383;51.114;13.666;2023-06-22T11:04:03;70257.41;;;27.72;100.00
36354;BME280;22383;51.114;13.666;2023-06-22T11:06:31;70279.03;;;27.89;100.00
36354;BME280;22383;51.114;13.666;2023-06-22T11:08:59;70280.41;;;28.12;100.00
36354;BME280;22383;51.114;13.666;2023-06-22T11:11:29;70315.97;;;28.44;100.00
36354;BME280;22383;51.114;13.666;2023-06-22T11:13:57;70353.28;;;28.77;100.00
36354;BME280;22383;51.114;13.666;2023-06-22T11:16:25;70394.63;;;29.14;100.00
36354;BME280;22383;51.114;13.666;2023-06-22T11:18:53;70458.22;;;29.49;100.00
36354;BME280;22383;51.114;13.666;2023-06-22T11:21:20;70461.81;;;29.74;98.73
36354;BME280;22383;51.114;13.666;2023-06-22T11:23:47;70452.03;;;29.66;97.91
36354;BME280;22383;51.114;13.666;2023-06-22T11:26:15;70431.34;;;29.28;99.67
36354;BME280;22383;51.114;13.666;2023-06-22T11:28:43;70373.38;;;28.95;100.00
36354;BME280;22383;51.114;13.666;2023-06-22T11:31:11;70344.66;;;28.70;100.00
36354;BME280;22383;51.114;13.666;2023-06-22T11:33:53;70374.91;;;28.75;100.00
36354;BME280;22383;51.114;13.666;2023-06-22T11:36:20;70414.53;;;29.10;100.00
36354;BME280;22383;51.114;13.666;2023-06-22T11:38:48;70422.19;;;29.39;100.00
36354;BME280;22383;51.114;13.666;2023-06-22T11:41:16;70462.38;;;29.55;100.00
36354;BME280;22383;51.114;13.666;2023-06-22T11:43:44;70473.13;;;29.63;100.00
36354;BME280;22383;51.114;13.666;2023-06-22T11:46:13;70454.34;;;29.68;98.44
36354;BME280;22383;51.114;13.666;2023-06-22T11:48:40;70524.28;;;30.08;96.73
36354;BME280;22383;51.114;13.666;2023-06-22T11:51:08;70576.75;;;30.58;91.03
36354;BME280;22383;51.114;13.666;2023-06-22T11:53:36;70583.03;;;30.83;91.31
36354;BME280;22383;51.114;13.666;2023-06-22T11:56:04;70581.91;;;30.62;87.96
36354;BME280;22383;51.114;13.666;2023-06-22T11:58:33;70565.81;;;30.48;88.84
36354;BME280;22383;51.114;13.666;2023-06-22T12:01:00;70539.94;;;30.44;93.77
36354;BME280;22383;51.114;13.666;2023-06-22T12:03:28;70464.66;;;29.57;92.82
36354;BME280;22383;51.114;13.666;2023-06-22T12:05:56;70423.31;;;29.20;100.00
36354;BME280;22383;51.114;13.666;2023-06-22T12:08:27;70406.09;;;29.05;99.50
36354;BME280;22383;51.114;13.666;2023-06-22T12:11:15;70362.31;;;28.63;98.14
36354;BME280;22383;51.114;13.666;2023-06-22T12:13:43;70338.31;;;28.44;96.90
36354;BME280;22383;51.114;13.666;2023-06-22T12:16:17;70306.22;;;28.35;100.00
36354;BME280;22383;51.114;13.666;2023-06-22T12:18:44;70303.34;;;28.33;100.00
36354;BME280;22383;51.114;13.666;2023-06-22T12:21:11;70401.91;;;28.99;100.00
36354;BME280;22383;51.114;13.666;2023-06-22T12:23:39;70435.41;;;29.51;94.45
36354;BME280;22383;51.114;13.666;2023-06-22T12:26:07;70499.59;;;29.86;92.63
36354;BME280;22383;51.114;13.666;2023-06-22T12:28:38;70521.56;;;30.28;90.95
36354;BME280;22383;51.114;13.666;2023-06-22T12:31:10;70553.16;;;30.56;87.55
36354;BME280;22383;51.114;13.666;2023-06-22T12:33:38;70565.22;;;30.67;86.87
36354;BME280;22383;51.114;13.666;2023-06-22T12:36:06;70558.91;;;30.61;89.78
36354;BME280;22383;51.114;13.666;2023-06-22T12:38:47;70603.47;;;30.77;93.34
36354;BME280;22383;51.114;13.666;2023-06-22T12:41:15;70558.31;;;30.61;91.39
36354;BME280;22383;51.114;13.666;2023-06-22T12:43:42;70510.63;;;30.18;92.76
36354;BME280;22383;51.114;13.666;2023-06-22T12:46:10;70538.78;;;30.43;91.88
36354;BME280;22383;51.114;13.666;2023-06-22T12:48:38;70539.94;;;30.44;86.41
36354;BME280;22383;51.114;13.666;2023-06-22T12:51:09;70576.16;;;30.57;84.68
36354;BME280;22383;51.114;13.666;2023-06-22T12:53:37;70577.28;;;30.78;89.55
36354;BME280;22383;51.114;13.666;2023-06-22T12:56:04;70598.59;;;30.77;91.94
36354;BME280;22383;51.114;13.666;2023-06-22T12:58:32;70577.88;;;30.59;85.66
36354;BME280;22383;51.114;13.666;2023-06-22T13:00:59;70555.91;;;30.37;85.30
36354;BME280;22383;51.114;13.666;2023-06-22T13:03:27;70550.72;;;30.32;85.55
36354;BME280;22383;51.114;13.666;2023-06-22T13:05:55;70577.75;;;30.56;83.98
36354;BME280;22383;51.114;13.666;2023-06-22T13:08:23;70568.69;;;30.70;84.92
36354;BME280;22383;51.114;13.666;2023-06-22T13:11:10;70589.34;;;30.88;84.54
36354;BME280;22383;51.114;13.666;2023-06-22T13:13:38;70589.94;;;30.89;80.36
36354;BME280;22383;51.114;13.666;2023-06-22T13:16:07;70645.75;;;31.19;85.21
36354;BME280;22383;51.114;13.666;2023-06-22T13:18:34;70675.63;;;31.46;83.50
36354;BME280;22383;51.114;13.666;2023-06-22T13:21:03;70614.53;;;30.89;86.44
36354;BME280;22383;51.114;13.666;2023-06-22T13:23:31;70590.94;;;30.68;86.35
36354;BME280;22383;51.114;13.666;2023-06-22T13:25:59;70546.25;;;30.30;88.23
36354;BME280;22383;51.114;13.666;2023-06-22T13:28:27;70497.28;;;29.84;92.31
36354;BME280;22383;51.114;13.666;2023-06-22T13:30:57;70467.38;;;29.57;94.12
36354;BME280;22383;51.114;13.666;2023-06-22T13:33:25;70466.38;;;29.59;93.47
36354;BME280;22383;51.114;13.666;2023-06-22T13:35:52;70472.56;;;29.62;89.81
36354;BME280;22383;51.114;13.666;2023-06-22T13:38:20;70453.59;;;29.45;89.53
36354;BME280;22383;51.114;13.666;2023-06-22T13:40:48;70425.59;;;29.22;90.17
36354;BME280;22383;51.114;13.666;2023-06-22T13:43:16;70444.56;;;29.39;94.62